sensor_id;sensor_type;location;lat;lon;timestamp;temperature;humidity
66928;DHT22;59882;45.624;11.698;2023-04-15T00:00:49;11.10;67.80
66928;DHT22;59882;45.624;11.698;2023-04-15T00:03:16;11.20;67.70
66928;DHT22;59882;45.624;11.698;2023-04-15T00:05:41;11.20;68.10
66928;DHT22;59882;45.624;11.698;2023-04-15T00:08:07;11.20;67.90
66928;DHT22;59882;45.624;11.698;2023-04-15T00:10:33;11.20;67.40
66928;DHT22;59882;45.624;11.698;2023-04-15T00:12:59;11.20;67.60
66928;DHT22;59882;45.624;11.698;2023-04-15T00:15:25;11.20;67.70
66928;DHT22;59882;45.624;11.698;2023-04-15T00:17:51;11.20;67.20
66928;DHT22;59882;45.624;11.698;2023-04-15T00:20:17;11.10;68.10
66928;DHT22;59882;45.624;11.698;2023-04-15T00:22:42;11.10;68.20
66928;DHT22;59882;45.624;11.698;2023-04-15T00:25:08;11.00;68.20
66928;DHT22;59882;45.624;11.698;2023-04-15T00:27:34;11.10;68.00
66928;DHT22;59882;45.624;11.698;2023-04-15T00:29:59;11.00;68.10
66928;DHT22;59882;45.624;11.698;2023-04-15T00:32:26;11.00;68.30
66928;DHT22;59882;45.624;11.698;2023-04-15T00:34:52;11.00;68.30
66928;DHT22;59882;45.624;11.698;2023-04-15T00:37:18;11.00;68.20
66928;DHT22;59882;45.624;11.698;2023-04-15T00:39:43;10.90;68.30
66928;DHT22;59882;45.624;11.698;2023-04-15T00:42:09;10.90;68.40
66928;DHT22;59882;45.624;11.698;2023-04-15T00:44:35;10.90;68.40
66928;DHT22;59882;45.624;11.698;2023-04-15T00:47:00;10.90;68.50
66928;DHT22;59882;45.624;11.698;2023-04-15T00:49:28;10.90;68.80
66928;DHT22;59882;45.624;11.698;2023-04-15T00:51:54;10.90;68.80
66928;DHT22;59882;45.624;11.698;2023-04-15T00:54:20;10.90;68.90
66928;DHT22;59882;45.624;11.698;2023-04-15T00:56:46;10.90;68.30
66928;DHT22;59882;45.624;11.698;2023-04-15T00:59:12;10.80;69.10
66928;DHT22;59882;45.624;11.698;2023-04-15T01:01:38;10.80;69.50
66928;DHT22;59882;45.624;11.698;2023-04-15T01:04:04;10.60;69.50
66928;DHT22;59882;45.624;11.698;2023-04-15T01:06:30;10.60;69.60
66928;DHT22;59882;45.624;11.698;2023-04-15T01:08:57;10.50;69.90
66928;DHT22;59882;45.624;11.698;2023-04-15T01:11:23;10.40;70.00
66928;DHT22;59882;45.624;11.698;2023-04-15T01:13:50;10.50;69.80
66928;DHT22;59882;45.624;11.698;2023-04-15T01:16:16;10.40;70.00
66928;DHT22;59882;45.624;11.698;2023-04-15T01:18:42;10.30;70.50
66928;DHT22;59882;45.624;11.698;2023-04-15T01:21:09;10.20;71.10
66928;DHT22;59882;45.624;11.698;2023-04-15T01:23:36;10.10;71.10
66928;DHT22;59882;45.624;11.698;2023-04-15T01:26:03;10.10;71.40
66928;DHT22;59882;45.624;11.698;2023-04-15T01:28:30;10.00;71.50
66928;DHT22;59882;45.624;11.698;2023-04-15T01:31:10;9.90;71.40
66928;DHT22;59882;45.624;11.698;2023-04-15T01:33:37;9.90;72.10
66928;DHT22;59882;45.624;11.698;2023-04-15T01:36:04;9.90;71.50
66928;DHT22;59882;45.624;11.698;2023-04-15T01:38:30;9.90;71.20
66928;DHT22;59882;45.624;11.698;2023-04-15T01:40:56;9.90;71.50
66928;DHT22;59882;45.624;11.698;2023-04-15T01:43:24;9.90;71.20
66928;DHT22;59882;45.624;11.698;2023-04-15T01:45:49;9.90;71.40
66928;DHT22;59882;45.624;11.698;2023-04-15T01:48:15;9.90;71.60
66928;DHT22;59882;45.624;11.698;2023-04-15T01:50:41;10.00;70.80
66928;DHT22;59882;45.624;11.698;2023-04-15T01:53:07;10.00;71.00
66928;DHT22;59882;45.624;11.698;2023-04-15T01:55:33;9.90;71.20
66928;DHT22;59882;45.624;11.698;2023-04-15T01:57:58;9.90;71.40
66928;DHT22;59882;45.624;11.698;2023-04-15T02:00:24;9.90;71.40
66928;DHT22;59882;45.624;11.698;2023-04-15T02:02:50;9.90;71.80
66928;DHT22;59882;45.624;11.698;2023-04-15T02:05:15;9.90;71.60
66928;DHT22;59882;45.624;11.698;2023-04-15T02:07:42;9.90;71.80
66928;DHT22;59882;45.624;11.698;2023-04-15T02:10:08;9.90;71.90
66928;DHT22;59882;45.624;11.698;2023-04-15T02:12:34;9.90;71.70
66928;DHT22;59882;45.624;11.698;2023-04-15T02:15:00;9.90;71.30
66928;DHT22;59882;45.624;11.698;2023-04-15T02:17:26;9.90;71.30
66928;DHT22;59882;45.624;11.698;2023-04-15T02:19:52;9.90;71.00
66928;DHT22;59882;45.624;11.698;2023-04-15T02:22:18;10.00;71.20
66928;DHT22;59882;45.624;11.698;2023-04-15T02:24:43;10.00;71.10
66928;DHT22;59882;45.624;11.698;2023-04-15T02:27:14;10.00;70.90
66928;DHT22;59882;45.624;11.698;2023-04-15T02:29:39;10.00;71.10
66928;DHT22;59882;45.624;11.698;2023-04-15T02:32:05;10.00;71.20
66928;DHT22;59882;45.624;11.698;2023-04-15T02:34:31;10.00;71.00
66928;DHT22;59882;45.624;11.698;2023-04-15T02:36:58;10.00;71.00
66928;DHT22;59882;45.624;11.698;2023-04-15T02:39:23;10.10;70.60
66928;DHT22;59882;45.624;11.698;2023-04-15T02:41:49;10.10;70.60
66928;DHT22;59882;45.624;11.698;2023-04-15T02:44:17;10.10;70.70
66928;DHT22;59882;45.624;11.698;2023-04-15T02:46:45;10.10;70.50
66928;DHT22;59882;45.624;11.698;2023-04-15T02:49:17;10.10;70.60
66928;DHT22;59882;45.624;11.698;2023-04-15T02:51:43;10.10;70.20
66928;DHT22;59882;45.624;11.698;2023-04-15T02:54:11;10.20;70.30
66928;DHT22;59882;45.624;11.698;2023-04-15T02:56:37;10.10;70.20
66928;DHT22;59882;45.624;11.698;2023-04-15T02:59:03;10.20;70.20
66928;DHT22;59882;45.624;11.698;2023-04-15T03:01:29;10.10;70.00
66928;DHT22;59882;45.624;11.698;2023-04-15T03:03:54;10.20;69.90
66928;DHT22;59882;45.624;11.698;2023-04-15T03:06:20;10.10;69.90
66928;DHT22;59882;45.624;11.698;2023-04-15T03:08:46;10.10;70.00
66928;DHT22;59882;45.624;11.698;2023-04-15T03:11:12;10.10;69.90
66928;DHT22;59882;45.624;11.698;2023-04-15T03:13:38;10.10;70.20
66928;DHT22;59882;45.624;11.698;2023-04-15T03:16:06;10.00;70.20
66928;DHT22;59882;45.624;11.698;2023-04-15T03:18:32;10.00;70.00
66928;DHT22;59882;45.624;11.698;2023-04-15T03:20:57;10.00;70.00
66928;DHT22;59882;45.624;11.698;2023-04-15T03:23:23;10.00;70.00
66928;DHT22;59882;45.624;11.698;2023-04-15T03:25:49;10.00;70.70
66928;DHT22;59882;45.624;11.698;2023-04-15T03:28:15;10.00;70.10
66928;DHT22;59882;45.624;11.698;2023-04-15T03:30:40;9.90;70.40
66928;DHT22;59882;45.624;11.698;2023-04-15T03:33:06;9.90;70.20
66928;DHT22;59882;45.624;11.698;2023-04-15T03:35:33;9.90;70.50
66928;DHT22;59882;45.624;11.698;2023-04-15T03:37:59;9.90;70.40
66928;DHT22;59882;45.624;11.698;2023-04-15T03:40:24;9.90;70.40
66928;DHT22;59882;45.624;11.698;2023-04-15T03:42:50;9.90;70.60
66928;DHT22;59882;45.624;11.698;2023-04-15T03:45:36;9.90;70.60
66928;DHT22;59882;45.624;11.698;2023-04-15T03:48:01;9.90;70.40
66928;DHT22;59882;45.624;11.698;2023-04-15T03:50:27;9.90;70.40
66928;DHT22;59882;45.624;11.698;2023-04-15T03:52:53;9.80;70.30
66928;DHT22;59882;45.624;11.698;2023-04-15T03:55:18;9.70;69.80
66928;DHT22;59882;45.624;11.698;2023-04-15T03:57:45;9.60;69.80
66928;DHT22;59882;45.624;11.698;2023-04-15T04:00:11;9.40;69.80
66928;DHT22;59882;45.624;11.698;2023-04-15T04:02:36;9.30;70.00
66928;DHT22;59882;45.624;11.698;2023-04-15T04:05:02;9.10;70.10
66928;DHT22;59882;45.624;11.698;2023-04-15T04:07:28;9.00;70.50
66928;DHT22;59882;45.624;11.698;2023-04-15T04:09:56;8.90;70.80
66928;DHT22;59882;45.624;11.698;2023-04-15T04:12:22;8.80;71.10
66928;DHT22;59882;45.624;11.698;2023-04-15T04:14:47;8.80;71.00
66928;DHT22;59882;45.624;11.698;2023-04-15T04:17:13;8.70;71.90
66928;DHT22;59882;45.624;11.698;2023-04-15T04:19:39;8.70;72.20
66928;DHT22;59882;45.624;11.698;2023-04-15T04:22:04;8.70;72.60
66928;DHT22;59882;45.624;11.698;2023-04-15T04:24:30;8.60;72.50
66928;DHT22;59882;45.624;11.698;2023-04-15T04:26:56;8.60;72.30
66928;DHT22;59882;45.624;11.698;2023-04-15T04:29:22;8.60;72.90
66928;DHT22;59882;45.624;11.698;2023-04-15T04:31:48;8.60;72.50
66928;DHT22;59882;45.624;11.698;2023-04-15T04:34:14;8.60;72.50
66928;DHT22;59882;45.624;11.698;2023-04-15T04:36:40;8.60;72.70
66928;DHT22;59882;45.624;11.698;2023-04-15T04:39:05;8.60;72.60
66928;DHT22;59882;45.624;11.698;2023-04-15T04:41:31;8.60;72.40
66928;DHT22;59882;45.624;11.698;2023-04-15T04:43:57;8.60;72.30
66928;DHT22;59882;45.624;11.698;2023-04-15T04:46:22;8.60;72.20
66928;DHT22;59882;45.624;11.698;2023-04-15T04:48:48;8.60;72.20
66928;DHT22;59882;45.624;11.698;2023-04-15T04:51:14;8.60;72.20
66928;DHT22;59882;45.624;11.698;2023-04-15T04:53:40;8.60;72.20
66928;DHT22;59882;45.624;11.698;2023-04-15T04:56:07;8.60;72.00
66928;DHT22;59882;45.624;11.698;2023-04-15T04:58:33;8.60;71.90
66928;DHT22;59882;45.624;11.698;2023-04-15T05:00:58;8.60;71.90
66928;DHT22;59882;45.624;11.698;2023-04-15T05:03:24;8.60;71.60
66928;DHT22;59882;45.624;11.698;2023-04-15T05:05:49;8.60;71.30
66928;DHT22;59882;45.624;11.698;2023-04-15T05:08:15;8.60;71.20
66928;DHT22;59882;45.624;11.698;2023-04-15T05:10:41;8.60;70.90
66928;DHT22;59882;45.624;11.698;2023-04-15T05:13:07;8.60;70.70
66928;DHT22;59882;45.624;11.698;2023-04-15T05:15:32;8.60;70.60
66928;DHT22;59882;45.624;11.698;2023-04-15T05:18:01;8.60;70.30
66928;DHT22;59882;45.624;11.698;2023-04-15T05:20:27;8.70;70.20
66928;DHT22;59882;45.624;11.698;2023-04-15T05:22:53;8.70;70.00
66928;DHT22;59882;45.624;11.698;2023-04-15T05:25:19;8.80;69.70
66928;DHT22;59882;45.624;11.698;2023-04-15T05:27:45;8.80;69.40
66928;DHT22;59882;45.624;11.698;2023-04-15T05:30:11;8.90;69.20
66928;DHT22;59882;45.624;11.698;2023-04-15T05:32:37;8.90;69.00
66928;DHT22;59882;45.624;11.698;2023-04-15T05:35:03;8.90;68.70
66928;DHT22;59882;45.624;11.698;2023-04-15T05:37:28;9.00;68.70
66928;DHT22;59882;45.624;11.698;2023-04-15T05:39:54;9.10;68.60
66928;DHT22;59882;45.624;11.698;2023-04-15T05:42:20;9.10;68.60
66928;DHT22;59882;45.624;11.698;2023-04-15T05:44:45;9.20;68.20
66928;DHT22;59882;45.624;11.698;2023-04-15T05:47:11;9.30;68.20
66928;DHT22;59882;45.624;11.698;2023-04-15T05:49:37;9.30;68.10
66928;DHT22;59882;45.624;11.698;2023-04-15T05:52:02;9.30;68.30
66928;DHT22;59882;45.624;11.698;2023-04-15T05:54:28;9.30;68.50
66928;DHT22;59882;45.624;11.698;2023-04-15T05:56:54;9.40;68.50
66928;DHT22;59882;45.624;11.698;2023-04-15T05:59:20;9.50;69.00
66928;DHT22;59882;45.624;11.698;2023-04-15T06:01:46;9.50;69.40
66928;DHT22;59882;45.624;11.698;2023-04-15T06:04:12;9.50;71.20
66928;DHT22;59882;45.624;11.698;2023-04-15T06:06:37;9.60;72.40
66928;DHT22;59882;45.624;11.698;2023-04-15T06:09:03;9.70;72.80
66928;DHT22;59882;45.624;11.698;2023-04-15T06:11:29;9.80;72.40
66928;DHT22;59882;45.624;11.698;2023-04-15T06:13:55;9.80;72.00
66928;DHT22;59882;45.624;11.698;2023-04-15T06:16:21;9.90;71.90
66928;DHT22;59882;45.624;11.698;2023-04-15T06:18:47;9.90;72.30
66928;DHT22;59882;45.624;11.698;2023-04-15T06:21:13;10.00;72.60
66928;DHT22;59882;45.624;11.698;2023-04-15T06:23:39;10.10;71.90
66928;DHT22;59882;45.624;11.698;2023-04-15T06:26:06;10.10;72.20
66928;DHT22;59882;45.624;11.698;2023-04-15T06:28:31;10.10;72.00
66928;DHT22;59882;45.624;11.698;2023-04-15T06:30:57;10.10;71.80
66928;DHT22;59882;45.624;11.698;2023-04-15T06:33:22;10.10;71.80
66928;DHT22;59882;45.624;11.698;2023-04-15T06:35:48;10.20;71.00
66928;DHT22;59882;45.624;11.698;2023-04-15T06:38:14;10.20;70.90
66928;DHT22;59882;45.624;11.698;2023-04-15T06:40:40;10.30;71.20
66928;DHT22;59882;45.624;11.698;2023-04-15T06:43:06;10.30;72.10
66928;DHT22;59882;45.624;11.698;2023-04-15T06:45:32;10.30;72.30
66928;DHT22;59882;45.624;11.698;2023-04-15T06:47:58;10.40;71.40
66928;DHT22;59882;45.624;11.698;2023-04-15T06:50:23;10.40;71.70
66928;DHT22;59882;45.624;11.698;2023-04-15T06:52:49;10.40;72.60
66928;DHT22;59882;45.624;11.698;2023-04-15T06:55:15;10.40;73.30
66928;DHT22;59882;45.624;11.698;2023-04-15T06:57:40;10.50;73.40
66928;DHT22;59882;45.624;11.698;2023-04-15T07:00:07;10.50;73.70
66928;DHT22;59882;45.624;11.698;2023-04-15T07:02:33;10.60;73.40
66928;DHT22;59882;45.624;11.698;2023-04-15T07:04:58;10.60;74.20
66928;DHT22;59882;45.624;11.698;2023-04-15T07:07:25;10.60;74.20
66928;DHT22;59882;45.624;11.698;2023-04-15T07:09:51;10.60;74.30
66928;DHT22;59882;45.624;11.698;2023-04-15T07:12:18;10.70;74.30
66928;DHT22;59882;45.624;11.698;2023-04-15T07:14:43;10.80;74.60
66928;DHT22;59882;45.624;11.698;2023-04-15T07:17:09;10.80;74.90
66928;DHT22;59882;45.624;11.698;2023-04-15T07:19:35;10.90;74.80
66928;DHT22;59882;45.624;11.698;2023-04-15T07:22:01;10.90;75.20
66928;DHT22;59882;45.624;11.698;2023-04-15T07:24:27;11.00;75.00
66928;DHT22;59882;45.624;11.698;2023-04-15T07:26:53;11.10;75.30
66928;DHT22;59882;45.624;11.698;2023-04-15T07:29:22;11.10;75.40
66928;DHT22;59882;45.624;11.698;2023-04-15T07:31:47;11.20;75.40
66928;DHT22;59882;45.624;11.698;2023-04-15T07:34:13;11.30;74.40
66928;DHT22;59882;45.624;11.698;2023-04-15T07:36:39;11.30;75.60
66928;DHT22;59882;45.624;11.698;2023-04-15T07:39:04;11.40;75.50
66928;DHT22;59882;45.624;11.698;2023-04-15T07:41:30;11.40;75.50
66928;DHT22;59882;45.624;11.698;2023-04-15T07:43:56;11.50;75.20
66928;DHT22;59882;45.624;11.698;2023-04-15T07:46:22;11.60;75.00
66928;DHT22;59882;45.624;11.698;2023-04-15T07:48:49;11.60;75.00
66928;DHT22;59882;45.624;11.698;2023-04-15T07:51:15;11.60;74.50
66928;DHT22;59882;45.624;11.698;2023-04-15T07:53:42;11.70;74.30
66928;DHT22;59882;45.624;11.698;2023-04-15T07:56:09;11.80;74.00
66928;DHT22;59882;45.624;11.698;2023-04-15T07:58:34;11.80;73.90
66928;DHT22;59882;45.624;11.698;2023-04-15T08:01:00;11.90;73.90
66928;DHT22;59882;45.624;11.698;2023-04-15T08:03:26;11.90;73.80
66928;DHT22;59882;45.624;11.698;2023-04-15T08:05:52;12.00;73.60
66928;DHT22;59882;45.624;11.698;2023-04-15T08:08:18;12.10;73.10
66928;DHT22;59882;45.624;11.698;2023-04-15T08:10:44;12.10;72.90
66928;DHT22;59882;45.624;11.698;2023-04-15T08:13:10;12.20;72.30
66928;DHT22;59882;45.624;11.698;2023-04-15T08:15:36;12.30;71.90
66928;DHT22;59882;45.624;11.698;2023-04-15T08:18:02;12.30;71.50
66928;DHT22;59882;45.624;11.698;2023-04-15T08:20:27;12.30;71.40
66928;DHT22;59882;45.624;11.698;2023-04-15T08:22:54;12.40;71.20
66928;DHT22;59882;45.624;11.698;2023-04-15T08:25:20;12.40;71.40
66928;DHT22;59882;45.624;11.698;2023-04-15T08:27:46;12.40;71.70
66928;DHT22;59882;45.624;11.698;2023-04-15T08:30:12;12.50;71.40
66928;DHT22;59882;45.624;11.698;2023-04-15T08:32:37;12.60;71.30
66928;DHT22;59882;45.624;11.698;2023-04-15T08:35:03;12.60;71.40
66928;DHT22;59882;45.624;11.698;2023-04-15T08:37:29;12.60;71.70
66928;DHT22;59882;45.624;11.698;2023-04-15T08:39:54;12.80;71.40
66928;DHT22;59882;45.624;11.698;2023-04-15T08:42:26;12.80;71.00
66928;DHT22;59882;45.624;11.698;2023-04-15T08:44:52;12.90;71.00
66928;DHT22;59882;45.624;11.698;2023-04-15T08:47:20;13.00;70.80
66928;DHT22;59882;45.624;11.698;2023-04-15T08:49:47;13.10;70.90
66928;DHT22;59882;45.624;11.698;2023-04-15T08:52:18;13.20;70.70
66928;DHT22;59882;45.624;11.698;2023-04-15T08:54:44;13.30;70.30
66928;DHT22;59882;45.624;11.698;2023-04-15T08:57:10;13.40;69.90
66928;DHT22;59882;45.624;11.698;2023-04-15T08:59:36;13.50;69.90
66928;DHT22;59882;45.624;11.698;2023-04-15T09:02:01;13.60;69.60
66928;DHT22;59882;45.624;11.698;2023-04-15T09:04:28;13.70;69.60
66928;DHT22;59882;45.624;11.698;2023-04-15T09:06:54;13.90;68.90
66928;DHT22;59882;45.624;11.698;2023-04-15T09:09:19;13.90;69.10
66928;DHT22;59882;45.624;11.698;2023-04-15T09:11:45;14.00;68.70
66928;DHT22;59882;45.624;11.698;2023-04-15T09:14:10;14.10;68.80
66928;DHT22;59882;45.624;11.698;2023-04-15T09:16:56;14.10;67.60
66928;DHT22;59882;45.624;11.698;2023-04-15T09:19:23;14.30;67.80
66928;DHT22;59882;45.624;11.698;2023-04-15T09:21:52;14.30;67.90
66928;DHT22;59882;45.624;11.698;2023-04-15T09:24:17;14.30;67.50
66928;DHT22;59882;45.624;11.698;2023-04-15T09:26:43;14.30;67.90
66928;DHT22;59882;45.624;11.698;2023-04-15T09:29:10;14.30;67.70
66928;DHT22;59882;45.624;11.698;2023-04-15T09:31:39;14.30;67.40
66928;DHT22;59882;45.624;11.698;2023-04-15T09:34:05;14.40;67.10
66928;DHT22;59882;45.624;11.698;2023-04-15T09:36:57;14.40;66.90
66928;DHT22;59882;45.624;11.698;2023-04-15T09:39:23;14.40;67.40
66928;DHT22;59882;45.624;11.698;2023-04-15T09:42:07;14.40;67.90
66928;DHT22;59882;45.624;11.698;2023-04-15T09:44:33;14.50;67.60
66928;DHT22;59882;45.624;11.698;2023-04-15T09:46:58;14.50;67.20
66928;DHT22;59882;45.624;11.698;2023-04-15T09:49:25;14.60;66.90
66928;DHT22;59882;45.624;11.698;2023-04-15T09:51:50;14.60;66.60
66928;DHT22;59882;45.624;11.698;2023-04-15T09:54:22;14.70;66.10
66928;DHT22;59882;45.624;11.698;2023-04-15T09:56:47;14.80;66.50
66928;DHT22;59882;45.624;11.698;2023-04-15T09:59:13;14.80;66.10
66928;DHT22;59882;45.624;11.698;2023-04-15T10:01:40;14.90;66.10
66928;DHT22;59882;45.624;11.698;2023-04-15T10:04:08;14.90;65.40
66928;DHT22;59882;45.624;11.698;2023-04-15T10:06:34;15.00;64.80
66928;DHT22;59882;45.624;11.698;2023-04-15T10:09:01;15.10;64.40
66928;DHT22;59882;45.624;11.698;2023-04-15T10:11:28;15.10;64.30
66928;DHT22;59882;45.624;11.698;2023-04-15T10:13:55;15.10;64.40
66928;DHT22;59882;45.624;11.698;2023-04-15T10:16:22;15.10;64.50
66928;DHT22;59882;45.624;11.698;2023-04-15T10:18:54;15.20;64.20
66928;DHT22;59882;45.624;11.698;2023-04-15T10:21:20;15.30;63.90
66928;DHT22;59882;45.624;11.698;2023-04-15T10:23:48;15.40;65.10
66928;DHT22;59882;45.624;11.698;2023-04-15T10:26:15;15.50;64.90
66928;DHT22;59882;45.624;11.698;2023-04-15T10:28:42;15.60;64.00
66928;DHT22;59882;45.624;11.698;2023-04-15T10:31:08;15.60;63.60
66928;DHT22;59882;45.624;11.698;2023-04-15T10:33:38;15.70;61.50
66928;DHT22;59882;45.624;11.698;2023-04-15T10:36:04;15.70;63.00
66928;DHT22;59882;45.624;11.698;2023-04-15T10:38:37;15.80;63.20
66928;DHT22;59882;45.624;11.698;2023-04-15T10:51:44;16.10;61.10
66928;DHT22;59882;45.624;11.698;2023-04-15T10:56:43;16.40;59.60
66928;DHT22;59882;45.624;11.698;2023-04-15T10:59:10;16.50;58.50
66928;DHT22;59882;45.624;11.698;2023-04-15T11:02:08;16.60;59.70
66928;DHT22;59882;45.624;11.698;2023-04-15T11:04:55;16.70;60.10
66928;DHT22;59882;45.624;11.698;2023-04-15T11:12:46;16.90;58.60
66928;DHT22;59882;45.624;11.698;2023-04-15T11:17:50;17.10;57.90
66928;DHT22;59882;45.624;11.698;2023-04-15T11:20:16;17.10;58.00
66928;DHT22;59882;45.624;11.698;2023-04-15T11:22:50;17.20;57.80
66928;DHT22;59882;45.624;11.698;2023-04-15T11:25:26;17.30;56.90
66928;DHT22;59882;45.624;11.698;2023-04-15T11:27:53;17.30;55.00
66928;DHT22;59882;45.624;11.698;2023-04-15T11:30:21;17.20;56.50
66928;DHT22;59882;45.624;11.698;2023-04-15T11:32:54;17.20;55.50
66928;DHT22;59882;45.624;11.698;2023-04-15T11:35:22;17.30;54.60
66928;DHT22;59882;45.624;11.698;2023-04-15T11:37:48;17.30;56.10
66928;DHT22;59882;45.624;11.698;2023-04-15T11:40:16;17.40;56.20
66928;DHT22;59882;45.624;11.698;2023-04-15T11:42:43;17.40;56.20
66928;DHT22;59882;45.624;11.698;2023-04-15T11:45:13;17.50;55.50
66928;DHT22;59882;45.624;11.698;2023-04-15T11:47:40;17.60;55.90
66928;DHT22;59882;45.624;11.698;2023-04-15T11:52:56;17.70;55.50
66928;DHT22;59882;45.624;11.698;2023-04-15T11:55:23;17.70;54.90
66928;DHT22;59882;45.624;11.698;2023-04-15T11:58:11;17.80;54.20
66928;DHT22;59882;45.624;11.698;2023-04-15T12:00:38;17.80;53.50
66928;DHT22;59882;45.624;11.698;2023-04-15T12:16:27;18.60;51.40
66928;DHT22;59882;45.624;11.698;2023-04-15T12:18:54;18.70;49.20
66928;DHT22;59882;45.624;11.698;2023-04-15T12:21:32;18.80;47.40
66928;DHT22;59882;45.624;11.698;2023-04-15T12:24:02;18.90;49.80
66928;DHT22;59882;45.624;11.698;2023-04-15T12:27:02;19.10;47.90
66928;DHT22;59882;45.624;11.698;2023-04-15T12:29:29;19.20;46.30
66928;DHT22;59882;45.624;11.698;2023-04-15T12:32:14;19.30;47.80
66928;DHT22;59882;45.624;11.698;2023-04-15T12:34:48;19.30;44.60
66928;DHT22;59882;45.624;11.698;2023-04-15T12:37:14;19.40;46.90
66928;DHT22;59882;45.624;11.698;2023-04-15T12:39:42;19.40;45.90
66928;DHT22;59882;45.624;11.698;2023-04-15T12:42:08;19.90;47.10
66928;DHT22;59882;45.624;11.698;2023-04-15T12:44:34;20.90;44.70
66928;DHT22;59882;45.624;11.698;2023-04-15T12:47:00;22.30;41.00
66928;DHT22;59882;45.624;11.698;2023-04-15T12:49:27;23.70;40.00
66928;DHT22;59882;45.624;11.698;2023-04-15T12:51:54;24.60;38.80
66928;DHT22;59882;45.624;11.698;2023-04-15T12:54:20;25.30;36.60
66928;DHT22;59882;45.624;11.698;2023-04-15T12:56:47;25.50;35.70
66928;DHT22;59882;45.624;11.698;2023-04-15T12:59:15;25.40;36.80
66928;DHT22;59882;45.624;11.698;2023-04-15T13:01:41;25.20;37.50
66928;DHT22;59882;45.624;11.698;2023-04-15T13:04:07;25.10;37.00
66928;DHT22;59882;45.624;11.698;2023-04-15T13:06:32;24.90;36.90
66928;DHT22;59882;45.624;11.698;2023-04-15T13:08:59;24.30;36.70
66928;DHT22;59882;45.624;11.698;2023-04-15T13:11:26;23.90;37.40
66928;DHT22;59882;45.624;11.698;2023-04-15T13:13:53;23.40;38.90
66928;DHT22;59882;45.624;11.698;2023-04-15T13:16:19;23.00;37.70
66928;DHT22;59882;45.624;11.698;2023-04-15T13:18:47;22.70;39.40
66928;DHT22;59882;45.624;11.698;2023-04-15T13:21:12;22.40;38.80
66928;DHT22;59882;45.624;11.698;2023-04-15T13:23:39;22.10;39.20
66928;DHT22;59882;45.624;11.698;2023-04-15T13:26:05;21.70;40.70
66928;DHT22;59882;45.624;11.698;2023-04-15T13:28:31;21.50;41.60
66928;DHT22;59882;45.624;11.698;2023-04-15T13:30:56;21.30;41.50
66928;DHT22;59882;45.624;11.698;2023-04-15T13:33:22;21.20;41.90
66928;DHT22;59882;45.624;11.698;2023-04-15T13:35:47;21.10;42.00
66928;DHT22;59882;45.624;11.698;2023-04-15T13:38:13;21.00;42.80
66928;DHT22;59882;45.624;11.698;2023-04-15T13:40:39;21.10;43.00
66928;DHT22;59882;45.624;11.698;2023-04-15T13:43:04;21.40;43.30
66928;DHT22;59882;45.624;11.698;2023-04-15T13:45:30;21.80;42.00
66928;DHT22;59882;45.624;11.698;2023-04-15T13:47:56;22.20;41.40
66928;DHT22;59882;45.624;11.698;2023-04-15T13:50:22;22.50;42.10
66928;DHT22;59882;45.624;11.698;2023-04-15T13:52:47;22.80;40.30
66928;DHT22;59882;45.624;11.698;2023-04-15T13:55:13;23.10;39.10
66928;DHT22;59882;45.624;11.698;2023-04-15T13:57:39;23.60;38.60
66928;DHT22;59882;45.624;11.698;2023-04-15T14:00:05;24.10;35.70
66928;DHT22;59882;45.624;11.698;2023-04-15T14:02:32;24.60;37.20
66928;DHT22;59882;45.624;11.698;2023-04-15T14:04:57;24.90;33.40
66928;DHT22;59882;45.624;11.698;2023-04-15T14:07:23;25.40;33.40
66928;DHT22;59882;45.624;11.698;2023-04-15T14:09:49;25.90;33.70
66928;DHT22;59882;45.624;11.698;2023-04-15T14:12:14;26.00;33.90
66928;DHT22;59882;45.624;11.698;2023-04-15T14:14:40;26.00;33.00
66928;DHT22;59882;45.624;11.698;2023-04-15T14:17:06;25.70;32.80
66928;DHT22;59882;45.624;11.698;2023-04-15T14:19:33;25.30;33.20
66928;DHT22;59882;45.624;11.698;2023-04-15T14:21:59;24.70;34.70
66928;DHT22;59882;45.624;11.698;2023-04-15T14:24:25;24.20;36.40
66928;DHT22;59882;45.624;11.698;2023-04-15T14:26:51;23.90;37.50
66928;DHT22;59882;45.624;11.698;2023-04-15T14:29:17;24.00;37.70
66928;DHT22;59882;45.624;11.698;2023-04-15T14:31:43;24.30;35.60
66928;DHT22;59882;45.624;11.698;2023-04-15T14:34:10;24.60;36.00
66928;DHT22;59882;45.624;11.698;2023-04-15T14:36:36;24.70;35.40
66928;DHT22;59882;45.624;11.698;2023-04-15T14:39:02;24.90;35.20
66928;DHT22;59882;45.624;11.698;2023-04-15T14:41:28;25.00;33.70
66928;DHT22;59882;45.624;11.698;2023-04-15T14:43:54;25.40;34.40
66928;DHT22;59882;45.624;11.698;2023-04-15T14:46:21;25.90;35.10
66928;DHT22;59882;45.624;11.698;2023-04-15T14:48:47;26.40;33.70
66928;DHT22;59882;45.624;11.698;2023-04-15T14:51:13;26.80;33.40
66928;DHT22;59882;45.624;11.698;2023-04-15T14:53:39;27.10;30.50
66928;DHT22;59882;45.624;11.698;2023-04-15T14:56:04;27.20;31.50
66928;DHT22;59882;45.624;11.698;2023-04-15T14:58:30;27.50;30.80
66928;DHT22;59882;45.624;11.698;2023-04-15T15:00:58;27.80;30.40
66928;DHT22;59882;45.624;11.698;2023-04-15T15:03:23;28.00;29.40
66928;DHT22;59882;45.624;11.698;2023-04-15T15:05:49;28.20;30.00
66928;DHT22;59882;45.624;11.698;2023-04-15T15:08:15;28.50;28.30
66928;DHT22;59882;45.624;11.698;2023-04-15T15:10:40;28.80;29.20
66928;DHT22;59882;45.624;11.698;2023-04-15T15:13:08;29.00;29.00
66928;DHT22;59882;45.624;11.698;2023-04-15T15:15:36;29.20;28.20
66928;DHT22;59882;45.624;11.698;2023-04-15T15:18:02;29.30;28.00
66928;DHT22;59882;45.624;11.698;2023-04-15T15:20:28;29.20;27.60
66928;DHT22;59882;45.624;11.698;2023-04-15T15:22:54;29.00;29.30
66928;DHT22;59882;45.624;11.698;2023-04-15T15:25:20;28.80;29.60
66928;DHT22;59882;45.624;11.698;2023-04-15T15:27:46;28.40;29.00
66928;DHT22;59882;45.624;11.698;2023-04-15T15:30:11;27.70;29.10
66928;DHT22;59882;45.624;11.698;2023-04-15T15:32:39;27.40;29.80
66928;DHT22;59882;45.624;11.698;2023-04-15T15:35:05;27.00;30.10
66928;DHT22;59882;45.624;11.698;2023-04-15T15:37:31;26.50;30.70
66928;DHT22;59882;45.624;11.698;2023-04-15T15:39:57;26.10;31.20
66928;DHT22;59882;45.624;11.698;2023-04-15T15:42:22;25.80;31.60
66928;DHT22;59882;45.624;11.698;2023-04-15T15:44:48;25.50;31.20
66928;DHT22;59882;45.624;11.698;2023-04-15T15:47:21;25.20;32.00
66928;DHT22;59882;45.624;11.698;2023-04-15T15:49:46;24.90;32.30
66928;DHT22;59882;45.624;11.698;2023-04-15T15:52:12;24.70;32.50
66928;DHT22;59882;45.624;11.698;2023-04-15T15:54:40;24.40;32.90